Time;durP1;ratioP1;P1;durP2;ratioP2;P2;SDS_P1;SDS_P2;PMS_P1;PMS_P2;Temp;Humidity;BMP_temperature;BMP_pressure;BME280_temperature;BME280_humidity;BME280_pressure;Samples;Min_cycle;Max_cycle;Signal;HPM_P1;HPM_P2
2022/09/11 00:01:14;;;;;;;26.77;23.80;;;;;;;;;;5094623;28;20020;-74
2022/09/11 00:03:43;;;;;;;31.05;24.23;;;;;;;;;;5116203;27;20471;-74
2022/09/11 00:06:10;;;;;;;30.15;25.73;;;;;;;;;;5091965;28;20020;-73
2022/09/11 00:08:37;;;;;;;27.70;22.23;;;;;;;;;;5121629;27;20042;-74
2022/09/11 00:11:17;;;;;;;24.92;22.10;;;;;;;;;;5091860;28;20031;-74
2022/09/11 00:13:44;;;;;;;25.80;19.63;;;;;;;;;;5092905;28;20016;-74
2022/09/11 00:16:28;;;;;;;27.60;23.60;;;;;;;;;;5091910;28;20031;-74
2022/09/11 00:18:55;;;;;;;24.73;21.23;;;;;;;;;;5094156;28;20394;-74
2022/09/11 00:21:21;;;;;;;24.00;20.00;;;;;;;;;;5096514;28;20023;-74
2022/09/11 00:23:50;;;;;;;21.88;18.77;;;;;;;;;;5094377;28;20028;-74
2022/09/11 00:26:17;;;;;;;24.42;18.20;;;;;;;;;;5091879;28;20091;-74
2022/09/11 00:28:44;;;;;;;24.85;17.73;;;;;;;;;;5115689;27;20016;-73
2022/09/11 00:31:14;;;;;;;19.92;17.58;;;;;;;;;;5115686;27;20020;-74
2022/09/11 00:33:40;;;;;;;20.45;18.23;;;;;;;;;;5088952;28;20201;-74
2022/09/11 00:36:27;;;;;;;22.98;19.48;;;;;;;;;;5096327;28;20039;-75
2022/09/11 00:38:54;;;;;;;28.60;18.92;;;;;;;;;;5091562;28;20519;-74
2022/09/11 00:41:24;;;;;;;28.08;22.92;;;;;;;;;;5096169;28;20012;-74
2022/09/11 00:43:56;;;;;;;30.20;25.00;;;;;;;;;;5091314;28;20020;-73
2022/09/11 00:46:24;;;;;;;31.88;26.30;;;;;;;;;;5094928;28;20012;-73
2022/09/11 00:48:50;;;;;;;38.20;29.17;;;;;;;;;;5091201;28;20027;-75
2022/09/11 00:51:24;;;;;;;31.08;26.30;;;;;;;;;;5090766;28;20008;-74
2022/09/11 00:53:53;;;;;;;26.33;20.50;;;;;;;;;;5091142;28;20024;-74
2022/09/11 00:56:20;;;;;;;21.40;18.48;;;;;;;;;;5088283;28;20020;-74
2022/09/11 00:58:48;;;;;;;22.70;17.23;;;;;;;;;;5091146;28;20835;-73
2022/09/11 01:01:14;;;;;;;17.63;15.80;;;;;;;;;;5096900;28;20057;-74
2022/09/11 01:03:41;;;;;;;17.58;15.85;;;;;;;;;;5093164;28;20419;-74
2022/09/11 01:06:08;;;;;;;25.17;17.38;;;;;;;;;;5090734;28;20073;-74
2022/09/11 01:08:34;;;;;;;19.23;16.45;;;;;;;;;;5096002;28;20016;-74
2022/09/11 01:11:19;;;;;;;21.58;18.83;;;;;;;;;;5095766;28;20506;-75
2022/09/11 01:13:45;;;;;;;25.00;19.13;;;;;;;;;;5091133;28;20396;-74
2022/09/11 01:16:17;;;;;;;28.20;21.80;;;;;;;;;;5090858;28;20530;-74
2022/09/11 01:18:43;;;;;;;22.08;19.85;;;;;;;;;;5088924;28;20111;-74
2022/09/11 01:21:15;;;;;;;23.65;20.90;;;;;;;;;;5090735;28;20031;-74
2022/09/11 01:23:44;;;;;;;23.67;20.02;;;;;;;;;;5091154;28;20498;-74
2022/09/11 01:26:13;;;;;;;24.38;21.90;;;;;;;;;;5090274;28;20394;-74
2022/09/11 01:28:58;;;;;;;28.00;23.67;;;;;;;;;;5091457;28;20012;-74
2022/09/11 01:31:26;;;;;;;25.33;22.08;;;;;;;;;;5091487;28;20020;-74
2022/09/11 01:34:11;;;;;;;25.77;19.77;;;;;;;;;;5114851;28;20017;-74
2022/09/11 01:36:43;;;;;;;23.05;19.52;;;;;;;;;;5091654;28;20028;-75
2022/09/11 01:39:09;;;;;;;23.20;20.80;;;;;;;;;;5094537;28;20054;-75
2022/09/11 01:41:43;;;;;;;26.77;19.85;;;;;;;;;;5090645;28;20008;-74
2022/09/11 01:44:12;;;;;;;22.05;19.83;;;;;;;;;;5090947;28;20016;-73
2022/09/11 01:46:43;;;;;;;25.55;18.30;;;;;;;;;;5090767;28;20047;-73
2022/09/11 01:49:26;;;;;;;21.65;19.45;;;;;;;;;;5090868;28;20438;-73
2022/09/11 01:51:55;;;;;;;20.95;18.70;;;;;;;;;;5090899;28;20086;-74
2022/09/11 01:54:23;;;;;;;24.25;18.95;;;;;;;;;;5101407;28;20038;-73
2022/09/11 01:56:51;;;;;;;20.00;17.98;;;;;;;;;;5096588;28;20016;-73
2022/09/11 01:59:24;;;;;;;24.10;20.95;;;;;;;;;;5111388;28;20032;-73
2022/09/11 02:01:54;;;;;;;23.10;17.90;;;;;;;;;;5094741;28;20023;-73
2022/09/11 02:04:26;;;;;;;26.83;21.63;;;;;;;;;;5094375;28;20379;-74
2022/09/11 02:06:55;;;;;;;24.75;17.65;;;;;;;;;;5091305;28;20028;-73
2022/09/11 02:09:23;;;;;;;25.17;18.35;;;;;;;;;;5108688;28;20035;-74
2022/09/11 02:11:51;;;;;;;22.27;19.58;;;;;;;;;;5099226;28;20024;-74
2022/09/11 02:14:28;;;;;;;24.67;21.20;;;;;;;;;;5094289;28;20024;-73
2022/09/11 02:17:03;;;;;;;27.02;19.63;;;;;;;;;;5094561;28;20146;-73
2022/09/11 02:19:29;;;;;;;24.45;18.10;;;;;;;;;;5091958;28;20047;-73
2022/09/11 02:21:58;;;;;;;22.65;17.67;;;;;;;;;;5094268;28;20031;-73
2022/09/11 02:24:26;;;;;;;21.90;17.35;;;;;;;;;;5124403;27;20012;-73
2022/09/11 02:26:57;;;;;;;29.23;19.77;;;;;;;;;;5094022;28;20466;-73
2022/09/11 02:29:23;;;;;;;24.58;18.75;;;;;;;;;;5094252;28;20050;-74
2022/09/11 02:31:51;;;;;;;33.65;23.95;;;;;;;;;;5094402;28;20035;-73
2022/09/11 02:34:18;;;;;;;23.75;20.67;;;;;;;;;;5093976;28;20016;-74
2022/09/11 02:36:53;;;;;;;27.52;22.17;;;;;;;;;;5094148;28;20032;-73
2022/09/11 02:39:38;;;;;;;23.52;21.02;;;;;;;;;;5093589;28;20048;-73
2022/09/11 02:42:05;;;;;;;23.48;21.02;;;;;;;;;;5080887;28;20132;-74
2022/09/11 02:44:39;;;;;;;20.10;17.73;;;;;;;;;;5093780;28;20040;-73
2022/09/11 02:47:14;;;;;;;30.10;19.60;;;;;;;;;;5080265;28;20094;-74
2022/09/11 02:49:59;;;;;;;21.80;18.83;;;;;;;;;;5109786;28;20483;-73
2022/09/11 02:52:26;;;;;;;22.33;20.02;;;;;;;;;;5090690;28;20031;-73
2022/09/11 02:55:12;;;;;;;22.75;17.35;;;;;;;;;;5099798;28;20024;-73
2022/09/11 02:57:38;;;;;;;18.67;16.88;;;;;;;;;;5113931;28;20057;-74
2022/09/11 03:00:07;;;;;;;21.10;14.45;;;;;;;;;;5098055;28;20043;-74
2022/09/11 03:02:37;;;;;;;16.92;15.15;;;;;;;;;;5093607;28;20020;-73
2022/09/11 03:05:07;;;;;;;16.00;14.30;;;;;;;;;;5093260;28;20020;-74
2022/09/11 03:07:33;;;;;;;17.55;13.85;;;;;;;;;;5093121;28;20069;-74
2022/09/11 03:09:59;;;;;;;15.57;14.00;;;;;;;;;;5093391;28;20020;-74
2022/09/11 03:12:28;;;;;;;16.30;12.75;;;;;;;;;;5101908;28;20024;-74
2022/09/11 03:14:55;;;;;;;16.27;12.35;;;;;;;;;;5105326;28;20019;-73
2022/09/11 03:17:21;;;;;;;12.88;11.68;;;;;;;;;;5094550;28;20106;-73
2022/09/11 03:19:48;;;;;;;14.38;11.88;;;;;;;;;;5093581;28;20028;-73
2022/09/11 03:22:14;;;;;;;14.57;13.07;;;;;;;;;;5092999;28;20089;-74
2022/09/11 03:24:40;;;;;;;17.08;11.43;;;;;;;;;;5116901;27;20032;-74
2022/09/11 03:27:06;;;;;;;13.32;12.07;;;;;;;;;;5081142;28;20020;-74
2022/09/11 03:29:32;;;;;;;17.35;12.10;;;;;;;;;;5093308;28;20074;-74
2022/09/11 03:31:59;;;;;;;18.95;13.15;;;;;;;;;;5092792;28;20020;-74
2022/09/11 03:34:25;;;;;;;13.88;12.48;;;;;;;;;;5074946;28;20024;-74
2022/09/11 03:36:52;;;;;;;14.48;13.07;;;;;;;;;;5085111;28;20043;-74
2022/09/11 03:39:18;;;;;;;24.27;12.10;;;;;;;;;;5113223;28;20123;-74
2022/09/11 03:41:44;;;;;;;17.25;12.20;;;;;;;;;;5108557;28;20046;-74
2022/09/11 03:44:11;;;;;;;18.38;12.63;;;;;;;;;;5103482;28;20046;-74
2022/09/11 03:46:37;;;;;;;14.25;11.00;;;;;;;;;;5096019;28;20016;-74
2022/09/11 03:49:05;;;;;;;13.05;10.05;;;;;;;;;;5092942;28;20016;-74
2022/09/11 03:51:31;;;;;;;16.63;10.75;;;;;;;;;;5082374;28;20370;-74
2022/09/11 03:53:59;;;;;;;11.23;10.02;;;;;;;;;;5104942;28;20065;-75
2022/09/11 03:56:30;;;;;;;17.17;9.80;;;;;;;;;;5108189;28;20064;-74
2022/09/11 03:58:56;;;;;;;16.13;9.57;;;;;;;;;;5092415;28;20097;-74
2022/09/11 04:01:23;;;;;;;11.80;9.32;;;;;;;;;;5074406;28;20030;-74
2022/09/11 04:03:49;;;;;;;13.40;8.95;;;;;;;;;;5126363;27;20072;-74
2022/09/11 04:06:15;;;;;;;12.43;9.05;;;;;;;;;;5102406;28;20024;-74
2022/09/11 04:08:41;;;;;;;11.77;10.02;;;;;;;;;;5106518;28;20019;-74
2022/09/11 04:11:10;;;;;;;17.52;10.98;;;;;;;;;;5092149;28;20110;-74
2022/09/11 04:13:37;;;;;;;15.38;12.77;;;;;;;;;;5096018;28;20099;-74
2022/09/11 04:16:08;;;;;;;14.70;13.15;;;;;;;;;;5099281;28;20046;-74
2022/09/11 04:18:35;;;;;;;18.17;13.60;;;;;;;;;;5098806;28;20406;-74
2022/09/11 04:21:08;;;;;;;21.25;13.80;;;;;;;;;;5091909;28;20043;-74
2022/09/11 04:23:35;;;;;;;15.15;13.48;;;;;;;;;;5091975;28;20024;-74
2022/09/11 04:26:01;;;;;;;19.08;13.68;;;;;;;;;;5092144;28;20109;-74
2022/09/11 04:28:28;;;;;;;18.10;15.65;;;;;;;;;;5091591;28;20016;-74
2022/09/11 04:30:56;;;;;;;17.27;14.88;;;;;;;;;;5091722;28;20017;-74
2022/09/11 04:33:23;;;;;;;27.50;17.23;;;;;;;;;;5091720;28;20482;-74
2022/09/11 04:35:49;;;;;;;34.67;18.20;;;;;;;;;;5091895;28;20527;-74
2022/09/11 04:38:17;;;;;;;36.67;26.10;;;;;;;;;;5091205;28;20013;-74
2022/09/11 04:40:44;;;;;;;23.48;19.52;;;;;;;;;;5092254;28;20055;-74
2022/09/11 04:43:10;;;;;;;26.70;19.38;;;;;;;;;;5091585;28;20024;-74
2022/09/11 04:45:37;;;;;;;24.05;20.20;;;;;;;;;;5092263;28;20020;-74
2022/09/11 04:48:03;;;;;;;24.38;19.42;;;;;;;;;;5091315;28;20020;-75
2022/09/11 04:50:30;;;;;;;19.70;16.83;;;;;;;;;;5091816;28;20062;-74
2022/09/11 04:52:57;;;;;;;22.83;18.95;;;;;;;;;;5091234;28;20024;-74
2022/09/11 04:55:24;;;;;;;37.45;20.77;;;;;;;;;;5091181;28;20166;-73
2022/09/11 04:57:51;;;;;;;23.60;18.90;;;;;;;;;;5102534;28;20524;-74
2022/09/11 05:00:17;;;;;;;25.02;18.88;;;;;;;;;;5079347;28;20062;-74
2022/09/11 05:02:43;;;;;;;35.00;21.05;;;;;;;;;;5084423;28;20016;-74
2022/09/11 05:05:09;;;;;;;34.55;27.00;;;;;;;;;;5092778;28;20071;-74
2022/09/11 05:07:37;;;;;;;33.05;22.98;;;;;;;;;;5086386;28;20474;-74
2022/09/11 05:10:03;;;;;;;23.15;19.20;;;;;;;;;;5093532;28;20493;-74
2022/09/11 05:12:30;;;;;;;24.55;17.42;;;;;;;;;;5067246;28;20135;-74
2022/09/11 05:14:56;;;;;;;16.52;14.70;;;;;;;;;;5082910;28;20020;-74
2022/09/11 05:17:23;;;;;;;21.13;16.80;;;;;;;;;;5073074;28;20020;-74
2022/09/11 05:19:49;;;;;;;26.20;19.38;;;;;;;;;;5090977;28;20077;-74
2022/09/11 05:22:15;;;;;;;24.70;21.48;;;;;;;;;;5106817;28;20468;-74
2022/09/11 05:24:41;;;;;;;24.88;20.05;;;;;;;;;;5090978;28;20025;-74
2022/09/11 05:27:08;;;;;;;26.67;21.50;;;;;;;;;;5090853;28;20103;-74
2022/09/11 05:29:34;;;;;;;22.77;18.70;;;;;;;;;;5106720;28;20494;-74
2022/09/11 05:32:01;;;;;;;23.38;20.45;;;;;;;;;;5106283;28;20047;-74
2022/09/11 05:34:27;;;;;;;26.08;19.90;;;;;;;;;;5090941;28;20460;-74
2022/09/11 05:36:57;;;;;;;26.42;18.35;;;;;;;;;;5106749;28;20387;-74
2022/09/11 05:39:23;;;;;;;20.67;16.55;;;;;;;;;;5091846;28;20052;-74
2022/09/11 05:41:50;;;;;;;22.25;16.48;;;;;;;;;;5094591;28;20020;-74
2022/09/11 05:44:16;;;;;;;28.95;18.42;;;;;;;;;;5110820;28;20041;-74
2022/09/11 05:46:42;;;;;;;19.63;17.27;;;;;;;;;;5098595;28;20019;-74
2022/09/11 05:49:08;;;;;;;28.30;18.60;;;;;;;;;;5106144;28;20071;-74
2022/09/11 05:51:36;;;;;;;25.90;17.15;;;;;;;;;;5096446;28;20017;-74
2022/09/11 05:54:02;;;;;;;26.88;18.23;;;;;;;;;;5115442;28;20038;-74
2022/09/11 05:56:28;;;;;;;20.80;18.13;;;;;;;;;;5097018;28;20015;-74
2022/09/11 05:58:54;;;;;;;23.05;17.95;;;;;;;;;;5094866;28;20032;-74
2022/09/11 06:01:22;;;;;;;22.20;16.02;;;;;;;;;;5094398;28;20069;-74
2022/09/11 06:03:48;;;;;;;20.58;14.57;;;;;;;;;;5094457;28;20031;-74
2022/09/11 06:06:15;;;;;;;20.60;13.02;;;;;;;;;;5094594;28;20016;-74
2022/09/11 06:08:44;;;;;;;14.60;11.82;;;;;;;;;;5094168;28;20512;-74
2022/09/11 06:11:11;;;;;;;15.50;11.70;;;;;;;;;;5103260;28;20026;-74
2022/09/11 06:13:38;;;;;;;12.82;10.10;;;;;;;;;;5099526;28;20352;-74
2022/09/11 06:16:06;;;;;;;11.23;9.98;;;;;;;;;;5101692;28;20120;-74
2022/09/11 06:18:32;;;;;;;12.38;10.98;;;;;;;;;;5100918;28;20024;-75
2022/09/11 06:20:59;;;;;;;17.13;10.88;;;;;;;;;;5094125;28;20046;-75
2022/09/11 06:23:25;;;;;;;15.27;11.68;;;;;;;;;;5094526;28;20459;-74
2022/09/11 06:25:53;;;;;;;14.65;10.40;;;;;;;;;;5094523;28;21015;-73
2022/09/11 06:28:22;;;;;;;28.25;11.07;;;;;;;;;;5093916;28;20526;-74
2022/09/11 06:30:51;;;;;;;15.70;10.23;;;;;;;;;;5094261;28;20027;-73
2022/09/11 06:33:21;;;;;;;11.77;7.22;;;;;;;;;;5108673;28;20711;-74
2022/09/11 06:36:00;;;;;;;9.30;7.30;;;;;;;;;;5093994;28;20016;-73
2022/09/11 06:38:26;;;;;;;7.10;6.15;;;;;;;;;;5093743;28;20038;-74
2022/09/11 06:40:53;;;;;;;8.60;6.18;;;;;;;;;;5121059;27;20024;-74
2022/09/11 06:43:19;;;;;;;10.65;7.80;;;;;;;;;;5092364;28;20034;-74
2022/09/11 06:45:47;;;;;;;14.40;9.27;;;;;;;;;;5093877;28;20025;-74
2022/09/11 06:48:13;;;;;;;16.85;8.25;;;;;;;;;;5109316;28;20021;-74
2022/09/11 06:50:39;;;;;;;9.55;6.78;;;;;;;;;;5093797;28;20020;-74
2022/09/11 06:53:06;;;;;;;11.60;6.88;;;;;;;;;;5084429;28;20120;-74
2022/09/11 06:55:32;;;;;;;18.58;7.05;;;;;;;;;;5093539;28;20026;-74
2022/09/11 06:57:58;;;;;;;7.55;5.20;;;;;;;;;;5109490;28;20028;-74
2022/09/11 07:00:24;;;;;;;9.35;5.47;;;;;;;;;;5093214;28;20032;-74
2022/09/11 07:02:55;;;;;;;9.15;5.45;;;;;;;;;;5103749;28;20016;-74
2022/09/11 07:05:21;;;;;;;9.35;6.20;;;;;;;;;;5078397;28;20482;-74
2022/09/11 07:07:54;;;;;;;5.20;4.13;;;;;;;;;;5093444;28;20027;-74
2022/09/11 07:10:21;;;;;;;10.18;5.82;;;;;;;;;;5093598;28;20055;-74
2022/09/11 07:12:47;;;;;;;12.35;4.35;;;;;;;;;;5101368;28;20092;-74
2022/09/11 07:15:13;;;;;;;7.60;4.10;;;;;;;;;;5099202;28;20020;-74
2022/09/11 07:17:39;;;;;;;6.03;4.68;;;;;;;;;;5093376;28;20019;-74
2022/09/11 07:20:09;;;;;;;7.97;3.55;;;;;;;;;;5093346;28;20039;-74
2022/09/11 07:22:35;;;;;;;5.90;3.30;;;;;;;;;;5093452;28;20028;-74
2022/09/11 07:25:01;;;;;;;11.65;4.05;;;;;;;;;;5108754;28;20028;-74
2022/09/11 07:27:30;;;;;;;6.63;4.25;;;;;;;;;;5092619;28;20483;-75
2022/09/11 07:29:57;;;;;;;5.75;3.63;;;;;;;;;;5112302;28;20497;-74
2022/09/11 07:32:23;;;;;;;6.72;3.55;;;;;;;;;;5101647;28;20028;-75
2022/09/11 07:34:49;;;;;;;6.35;3.13;;;;;;;;;;5096087;28;20043;-74
2022/09/11 07:37:15;;;;;;;7.53;2.80;;;;;;;;;;5085457;28;20020;-74
2022/09/11 07:39:41;;;;;;;6.68;3.15;;;;;;;;;;5108209;28;20047;-75
2022/09/11 07:42:07;;;;;;;7.40;3.70;;;;;;;;;;5093309;28;20110;-75
2022/09/11 07:44:34;;;;;;;8.90;3.58;;;;;;;;;;5092864;28;20020;-74
2022/09/11 07:47:00;;;;;;;7.32;3.75;;;;;;;;;;5091978;28;20020;-75
2022/09/11 07:49:26;;;;;;;9.75;4.22;;;;;;;;;;5092398;28;20024;-75
2022/09/11 07:51:53;;;;;;;4.15;2.65;;;;;;;;;;5092654;28;20020;-74
2022/09/11 07:54:19;;;;;;;4.72;3.35;;;;;;;;;;5092530;28;20016;-74
2022/09/11 07:56:45;;;;;;;10.43;4.00;;;;;;;;;;5074280;28;20387;-74
2022/09/11 07:59:11;;;;;;;7.70;3.50;;;;;;;;;;5092769;28;20040;-75
2022/09/11 08:01:37;;;;;;;4.35;2.80;;;;;;;;;;5092212;28;20020;-74
2022/09/11 08:04:04;;;;;;;9.63;4.07;;;;;;;;;;5078095;28;20031;-74
2022/09/11 08:06:31;;;;;;;11.95;2.58;;;;;;;;;;5108181;28;20027;-75
2022/09/11 08:08:59;;;;;;;5.65;3.45;;;;;;;;;;5091835;28;20020;-75
2022/09/11 08:11:26;;;;;;;11.57;3.78;;;;;;;;;;5092631;28;20028;-75
2022/09/11 08:13:52;;;;;;;7.95;3.05;;;;;;;;;;5107716;28;20093;-75
2022/09/11 08:16:19;;;;;;;4.97;3.67;;;;;;;;;;5092450;28;20099;-75
2022/09/11 08:18:47;;;;;;;8.15;3.30;;;;;;;;;;5091576;28;20468;-75
2022/09/11 08:21:13;;;;;;;9.18;3.75;;;;;;;;;;5092047;28;20047;-75
2022/09/11 08:23:40;;;;;;;5.60;3.47;;;;;;;;;;5092368;28;20571;-74
2022/09/11 08:26:07;;;;;;;5.50;3.63;;;;;;;;;;5091557;28;20055;-74
2022/09/11 08:28:34;;;;;;;6.88;3.45;;;;;;;;;;5091885;28;20025;-74
2022/09/11 08:31:00;;;;;;;4.88;2.70;;;;;;;;;;5092344;28;20027;-74
2022/09/11 08:33:27;;;;;;;4.85;3.40;;;;;;;;;;5091650;28;20095;-74
2022/09/11 08:35:53;;;;;;;8.20;3.38;;;;;;;;;;5091780;28;20026;-73
2022/09/11 08:38:19;;;;;;;6.07;3.38;;;;;;;;;;5095772;28;20020;-75
2022/09/11 08:40:46;;;;;;;8.82;3.55;;;;;;;;;;5112068;28;20032;-75
2022/09/11 08:43:41;;;;;;;6.55;3.13;;;;;;;;;;5095180;28;20024;-75
2022/09/11 08:46:08;;;;;;;10.18;3.90;;;;;;;;;;5078288;28;20044;-74
2022/09/11 08:48:57;;;;;;;6.78;3.58;;;;;;;;;;5110134;28;20016;-74
2022/09/11 08:51:24;;;;;;;6.13;3.83;;;;;;;;;;5069188;28;20036;-74
2022/09/11 08:53:51;;;;;;;7.47;4.47;;;;;;;;;;5091082;28;20059;-74
2022/09/11 08:56:21;;;;;;;9.23;3.70;;;;;;;;;;5091419;28;20091;-74
2022/09/11 08:58:50;;;;;;;6.95;2.95;;;;;;;;;;5111791;27;20052;-74
2022/09/11 09:01:16;;;;;;;5.85;3.70;;;;;;;;;;5100493;28;20028;-74
2022/09/11 09:03:48;;;;;;;7.97;4.18;;;;;;;;;;5106948;28;20433;-74
2022/09/11 09:06:34;;;;;;;13.32;4.10;;;;;;;;;;5101425;28;20050;-74
2022/09/11 09:09:04;;;;;;;4.00;2.78;;;;;;;;;;5097001;28;20028;-74
2022/09/11 09:11:49;;;;;;;10.25;3.63;;;;;;;;;;5100062;28;20024;-74
2022/09/11 09:14:33;;;;;;;6.40;2.90;;;;;;;;;;5089903;28;20479;-73
2022/09/11 09:17:01;;;;;;;4.97;2.90;;;;;;;;;;5090714;28;20020;-74
2022/09/11 09:19:40;;;;;;;5.25;2.90;;;;;;;;;;5090976;28;20039;-74
2022/09/11 09:22:10;;;;;;;8.20;2.72;;;;;;;;;;5107452;28;20497;-75
2022/09/11 09:24:41;;;;;;;4.38;2.60;;;;;;;;;;5104280;28;20024;-74
2022/09/11 09:27:09;;;;;;;5.95;2.80;;;;;;;;;;5091133;28;20062;-74
2022/09/11 09:29:37;;;;;;;4.80;2.88;;;;;;;;;;5090697;28;20044;-74
2022/09/11 09:32:10;;;;;;;8.45;2.85;;;;;;;;;;5090863;28;20095;-74
2022/09/11 09:34:38;;;;;;;6.70;2.42;;;;;;;;;;5091158;28;20031;-74
2022/09/11 09:37:27;;;;;;;6.47;2.10;;;;;;;;;;5072505;28;20024;-75
2022/09/11 09:39:53;;;;;;;4.18;2.50;;;;;;;;;;5092862;28;20131;-75
2022/09/11 09:42:38;;;;;;;5.32;3.40;;;;;;;;;;5090422;28;20019;-74
2022/09/11 09:45:23;;;;;;;4.40;2.22;;;;;;;;;;5090895;28;20056;-73
2022/09/11 09:47:49;;;;;;;3.88;2.35;;;;;;;;;;5090342;28;20023;-75
2022/09/11 09:50:18;;;;;;;18.15;14.48;;;;;;;;;;5090420;28;20032;-74
2022/09/11 09:52:45;;;;;;;6.90;3.03;;;;;;;;;;5090463;28;20091;-74
2022/09/11 09:55:14;;;;;;;6.55;2.50;;;;;;;;;;5114706;28;20032;-74
2022/09/11 09:57:42;;;;;;;6.50;2.63;;;;;;;;;;5088036;28;20065;-74
2022/09/11 10:00:13;;;;;;;6.72;2.70;;;;;;;;;;5093085;28;20032;-74
2022/09/11 10:02:42;;;;;;;6.60;3.35;;;;;;;;;;5087838;28;20070;-75
2022/09/11 10:05:15;;;;;;;5.45;2.83;;;;;;;;;;5093143;28;20443;-75
2022/09/11 10:07:58;;;;;;;6.88;3.08;;;;;;;;;;5088017;28;20016;-75
2022/09/11 10:10:30;;;;;;;7.93;2.75;;;;;;;;;;5088437;28;20483;-75
2022/09/11 10:12:57;;;;;;;8.52;2.30;;;;;;;;;;5114365;28;20375;-75
2022/09/11 10:15:24;;;;;;;10.52;2.40;;;;;;;;;;5090575;28;20023;-74
2022/09/11 10:17:52;;;;;;;7.97;2.40;;;;;;;;;;5101036;28;20020;-73
2022/09/11 10:20:18;;;;;;;4.78;2.10;;;;;;;;;;5095719;28;20054;-75
2022/09/11 10:22:44;;;;;;;4.10;1.80;;;;;;;;;;5090187;28;20013;-74
2022/09/11 10:25:12;;;;;;;6.22;2.47;;;;;;;;;;5090570;28;20110;-75
2022/09/11 10:27:59;;;;;;;5.22;2.08;;;;;;;;;;5090997;28;20095;-75
2022/09/11 10:30:37;;;;;;;3.50;1.85;;;;;;;;;;5086028;28;20067;-74
2022/09/11 10:33:05;;;;;;;5.30;2.05;;;;;;;;;;5091692;28;20016;-75
2022/09/11 10:35:34;;;;;;;6.57;2.75;;;;;;;;;;5093529;28;20023;-75
2022/09/11 10:38:13;;;;;;;4.10;1.63;;;;;;;;;;5094012;28;20019;-74
2022/09/11 10:40:44;;;;;;;5.20;1.80;;;;;;;;;;5117829;27;20372;-74
2022/09/11 10:43:19;;;;;;;3.75;1.98;;;;;;;;;;5093727;28;20016;-76
2022/09/11 10:46:00;;;;;;;4.18;1.52;;;;;;;;;;5091488;28;20016;-75
2022/09/11 10:48:26;;;;;;;2.75;1.33;;;;;;;;;;5091870;28;20020;-74
2022/09/11 10:51:04;;;;;;;2.60;1.45;;;;;;;;;;5096133;28;20046;-75
2022/09/11 10:53:33;;;;;;;7.07;1.58;;;;;;;;;;5092086;28;20383;-74
2022/09/11 10:56:00;;;;;;;6.15;2.78;;;;;;;;;;5090567;28;20066;-74
2022/09/11 10:58:32;;;;;;;3.00;1.70;;;;;;;;;;5093127;28;20016;-74
2022/09/11 11:00:58;;;;;;;4.35;1.67;;;;;;;;;;5092872;28;20450;-74
2022/09/11 11:03:26;;;;;;;11.02;7.25;;;;;;;;;;5093188;28;20024;-74
2022/09/11 11:05:58;;;;;;;6.70;3.63;;;;;;;;;;5093150;28;20016;-74
2022/09/11 11:08:45;;;;;;;8.30;3.40;;;;;;;;;;5091089;28;20040;-74
2022/09/11 11:11:26;;;;;;;8.93;3.13;;;;;;;;;;5116717;27;20445;-75
2022/09/11 11:14:02;;;;;;;3.85;2.75;;;;;;;;;;5099323;28;20098;-75
2022/09/11 11:16:38;;;;;;;3.58;2.20;;;;;;;;;;5096989;28;20466;-75
2022/09/11 11:19:27;;;;;;;5.00;2.85;;;;;;;;;;5105908;28;20153;-75
2022/09/11 11:22:02;;;;;;;6.25;3.40;;;;;;;;;;5107367;28;20042;-75
2022/09/11 11:24:54;;;;;;;5.07;2.70;;;;;;;;;;5105617;28;20020;-75
2022/09/11 11:27:43;;;;;;;4.97;2.00;;;;;;;;;;5100953;28;20477;-75
2022/09/11 11:30:09;;;;;;;8.23;2.33;;;;;;;;;;5102571;28;20065;-75
2022/09/11 11:32:54;;;;;;;2.95;2.20;;;;;;;;;;5095585;28;20024;-74
2022/09/11 11:35:21;;;;;;;6.57;3.15;;;;;;;;;;5103089;28;20040;-75
2022/09/11 11:37:49;;;;;;;7.63;2.40;;;;;;;;;;5099581;28;20013;-74
2022/09/11 11:40:15;;;;;;;3.47;1.80;;;;;;;;;;5094987;28;20052;-74
2022/09/11 11:42:45;;;;;;;3.78;2.00;;;;;;;;;;5098059;28;20073;-74
2022/09/11 11:45:17;;;;;;;3.33;1.42;;;;;;;;;;5113388;27;20084;-75
2022/09/11 11:47:46;;;;;;;4.07;2.13;;;;;;;;;;5103973;28;20062;-75
2022/09/11 11:50:21;;;;;;;6.07;3.72;;;;;;;;;;5101124;28;20012;-75
2022/09/11 11:52:48;;;;;;;2.92;1.17;;;;;;;;;;5098595;28;20042;-74
2022/09/11 11:55:16;;;;;;;4.47;2.13;;;;;;;;;;5097254;28;20023;-75
2022/09/11 11:57:45;;;;;;;4.72;2.92;;;;;;;;;;5097316;28;20027;-76
2022/09/11 12:00:13;;;;;;;8.63;1.85;;;;;;;;;;5110306;27;20039;-74
2022/09/11 12:02:49;;;;;;;4.90;2.35;;;;;;;;;;5097730;28;20023;-74
2022/09/11 12:05:18;;;;;;;4.60;1.88;;;;;;;;;;5105963;28;20051;-74
2022/09/11 12:07:46;;;;;;;4.00;1.70;;;;;;;;;;5094893;28;20471;-74
2022/09/11 12:10:20;;;;;;;3.35;1.80;;;;;;;;;;5105762;28;20471;-74
2022/09/11 12:12:48;;;;;;;3.92;1.75;;;;;;;;;;5092543;28;20107;-74
2022/09/11 12:15:19;;;;;;;6.88;1.88;;;;;;;;;;5104907;28;20100;-74
2022/09/11 12:17:48;;;;;;;5.15;1.60;;;;;;;;;;5097904;28;20051;-74
2022/09/11 12:20:29;;;;;;;4.97;2.05;;;;;;;;;;5100713;28;20028;-74
2022/09/11 12:22:55;;;;;;;6.50;2.47;;;;;;;;;;5091625;28;20091;-74
2022/09/11 12:25:21;;;;;;;7.53;3.78;;;;;;;;;;5091663;28;20410;-75
2022/09/11 12:27:54;;;;;;;6.32;2.25;;;;;;;;;;5091023;28;20479;-74
2022/09/11 12:30:20;;;;;;;5.75;2.25;;;;;;;;;;5092309;28;20016;-74
2022/09/11 12:32:51;;;;;;;4.30;1.73;;;;;;;;;;5093359;28;20061;-74
2022/09/11 12:35:20;;;;;;;7.82;3.03;;;;;;;;;;5091553;28;20383;-73
2022/09/11 12:37:58;;;;;;;6.88;2.10;;;;;;;;;;5097242;28;20550;-73
2022/09/11 12:40:31;;;;;;;4.15;2.20;;;;;;;;;;5103730;28;20046;-74
2022/09/11 12:42:59;;;;;;;2.70;1.63;;;;;;;;;;5081986;28;20400;-74
2022/09/11 12:45:30;;;;;;;4.15;2.40;;;;;;;;;;5110604;27;20016;-74
2022/09/11 12:48:02;;;;;;;5.05;2.17;;;;;;;;;;5099995;28;20024;-75
2022/09/11 12:50:28;;;;;;;6.63;3.78;;;;;;;;;;5108147;28;20530;-73
2022/09/11 12:53:01;;;;;;;7.45;3.08;;;;;;;;;;5087457;28;20064;-72
2022/09/11 12:55:50;;;;;;;3.83;2.50;;;;;;;;;;5096904;28;20013;-73
2022/09/11 12:58:19;;;;;;;6.82;2.83;;;;;;;;;;5098210;28;20016;-74
2022/09/11 13:00:48;;;;;;;3.30;2.28;;;;;;;;;;5094053;28;20499;-74
2022/09/11 13:03:20;;;;;;;6.03;3.75;;;;;;;;;;5107520;28;20027;-74
2022/09/11 13:05:54;;;;;;;6.43;2.10;;;;;;;;;;5096954;28;20020;-72
2022/09/11 13:08:22;;;;;;;5.10;2.33;;;;;;;;;;5089682;28;20147;-73
2022/09/11 13:10:49;;;;;;;5.15;2.40;;;;;;;;;;5096031;28;20103;-71
2022/09/11 13:13:51;;;;;;;5.35;1.90;;;;;;;;;;5095122;28;20035;-72
2022/09/11 13:16:18;;;;;;;3.80;2.22;;;;;;;;;;5012601;28;20025;-71
2022/09/11 13:18:44;;;;;;;3.35;1.92;;;;;;;;;;5074388;28;20032;-71
2022/09/11 13:21:10;;;;;;;6.32;2.92;;;;;;;;;;5095163;28;20023;-70
2022/09/11 13:23:36;;;;;;;6.72;3.55;;;;;;;;;;5095967;28;20016;-71
2022/09/11 13:26:04;;;;;;;5.53;3.55;;;;;;;;;;5092756;28;20087;-71
2022/09/11 13:28:30;;;;;;;7.32;3.75;;;;;;;;;;5096960;28;20444;-73
2022/09/11 13:31:00;;;;;;;13.90;7.78;;;;;;;;;;5101937;28;20097;-71
2022/09/11 13:33:28;;;;;;;6.45;2.70;;;;;;;;;;5100515;28;20012;-71
2022/09/11 13:35:56;;;;;;;6.55;4.00;;;;;;;;;;5108972;28;20076;-71
2022/09/11 13:38:29;;;;;;;6.63;3.90;;;;;;;;;;5106640;28;20061;-72
2022/09/11 13:40:56;;;;;;;5.25;2.65;;;;;;;;;;5093628;28;20028;-73
2022/09/11 13:43:34;;;;;;;7.57;2.78;;;;;;;;;;5099706;28;20016;-72
2022/09/11 13:46:16;;;;;;;9.93;2.88;;;;;;;;;;5091032;28;20020;-72
2022/09/11 13:48:45;;;;;;;5.85;3.15;;;;;;;;;;5097917;28;20016;-73
2022/09/11 13:51:24;;;;;;;10.57;6.93;;;;;;;;;;5103315;28;20031;-74
2022/09/11 13:54:02;;;;;;;8.10;5.32;;;;;;;;;;5095280;28;20036;-72
2022/09/11 13:56:50;;;;;;;7.30;3.75;;;;;;;;;;5094858;28;20099;-72
2022/09/11 13:59:25;;;;;;;4.18;2.75;;;;;;;;;;5111040;28;20394;-71
2022/09/11 14:01:53;;;;;;;5.63;4.32;;;;;;;;;;5097249;28;20034;-71
2022/09/11 14:04:20;;;;;;;7.07;2.85;;;;;;;;;;5079215;28;20095;-71
2022/09/11 14:06:46;;;;;;;7.15;4.40;;;;;;;;;;5097590;28;20027;-73
2022/09/11 14:09:17;;;;;;;5.10;3.13;;;;;;;;;;5096264;28;20027;-71
2022/09/11 14:11:43;;;;;;;3.83;2.50;;;;;;;;;;5096473;28;20099;-71
2022/09/11 14:14:19;;;;;;;4.35;2.85;;;;;;;;;;5093588;28;20024;-74
2022/09/11 14:16:47;;;;;;;6.20;3.58;;;;;;;;;;5109520;28;20016;-77
2022/09/11 14:19:13;;;;;;;6.13;3.72;;;;;;;;;;5108259;28;20032;-75
2022/09/11 14:21:45;;;;;;;7.03;3.22;;;;;;;;;;5108503;28;20060;-76
2022/09/11 14:24:26;;;;;;;4.32;2.80;;;;;;;;;;5107219;28;20031;-76
2022/09/11 14:26:52;;;;;;;8.18;3.15;;;;;;;;;;5103554;28;20025;-77
2022/09/11 14:29:23;;;;;;;10.30;4.97;;;;;;;;;;5098181;28;20436;-77
2022/09/11 14:31:50;;;;;;;6.35;3.40;;;;;;;;;;5102411;28;20193;-76
2022/09/11 14:34:20;;;;;;;8.35;2.80;;;;;;;;;;5082723;28;20031;-76
2022/09/11 14:36:48;;;;;;;5.78;3.35;;;;;;;;;;5109109;28;20390;-75
2022/09/11 14:39:21;;;;;;;11.45;5.85;;;;;;;;;;5108977;28;20048;-77
2022/09/11 14:41:47;;;;;;;9.90;3.80;;;;;;;;;;5093770;28;20055;-76
2022/09/11 14:44:14;;;;;;;10.52;3.55;;;;;;;;;;5077293;28;20016;-76
2022/09/11 14:46:40;;;;;;;12.60;3.67;;;;;;;;;;5093625;28;20147;-76